EW1059 Weather Reports


Display with metric or nautical units.
time (UTC)temp
F
wind
direction
speed
MPH
gust
MPH
rain 1hr
in
rain 24hr
in
rain mn
in
humidity
%
barometer
mb
20190919064321 57 0.0 2.0 0.00 0.00 0.00 92 1025.0
20190919063321 56 68 1.0 2.0 0.00 0.00 0.00 92 1025.0
20190919062316 55 0.0 0.0 0.00 0.00 0.00 91 1025.0
20190919061316 55 0.0 0.0 0.00 0.00 0.00 89 1025.0
20190919060321 55 0.0 0.0 0.00 0.00 0.00 88 1025.1
20190919055321 56 0.0 0.0 0.00 0.00 0.00 88 1025.0
20190919054321 56 0.0 0.0 0.00 0.00 0.00 86 1024.9
20190919053322 56 0.0 0.0 0.00 0.00 0.00 85 1024.9
20190919052321 57 0.0 0.0 0.00 0.00 0.00 84 1024.9
20190919051316 58 0.0 0.0 0.00 0.00 0.00 83 1024.9
20190919050317 58 0.0 0.0 0.00 0.00 0.00 82 1024.6
20190919045321 58 0.0 0.0 0.00 0.00 0.00 81 1024.6
20190919044321 59 0.0 0.0 0.00 0.00 0.00 80 1024.6
20190919043321 59 0.0 0.0 0.00 0.00 0.00 78 1024.6
20190919042321 59 0.0 1.0 0.00 0.00 0.00 77 1024.6
20190919041321 59 0.0 1.0 0.00 0.00 0.00 75 1024.5
20190919040316 59 0.0 1.0 0.00 0.00 0.00 75 1024.4
20190919035316 58 68 1.0 3.0 0.00 0.00 0.00 76 1024.3
20190919034321 58 68 1.0 3.0 0.00 0.00 0.00 75 1024.4
20190919033321 58 0.0 0.0 0.00 0.00 0.00 74 1024.1
20190919032323 59 0.0 0.0 0.00 0.00 0.00 72 1024.0
20190919031321 59 0.0 0.0 0.00 0.00 0.00 71 1024.0
20190919030321 60 0.0 0.0 0.00 0.00 0.00 69 1023.9
20190919025316 61 0.0 0.0 0.00 0.00 0.00 67 1023.9
20190919024316 61 0.0 0.0 0.00 0.00 0.00 66 1023.8
20190919023321 62 0.0 0.0 0.00 0.00 0.00 66 1023.6
20190919022321 62 0.0 1.0 0.00 0.00 0.00 65 1023.5
20190919021321 62 68 1.0 2.0 0.00 0.00 0.00 64 1023.3
20190919020321 63 0.0 1.0 0.00 0.00 0.00 63 1023.4
20190919015322 63 68 1.0 1.0 0.00 0.00 0.00 62 1023.4
20190919014321 64 0.0 1.0 0.00 0.00 0.00 61 1023.3
20190919013316 64 0.0 0.0 0.00 0.00 0.00 60 1023.2
20190919012321 64 68 1.0 1.0 0.00 0.00 0.00 59 1023.1
20190919011321 65 68 1.0 1.0 0.00 0.00 0.00 57 1023.1
20190919010321 65 68 2.0 3.0 0.00 0.00 0.00 57 1023.1
20190919005321 66 68 1.0 2.0 0.00 0.00 0.00 55 1023.1
20190919004321 66 68 2.0 2.0 0.00 0.00 0.00 55 1023.0
20190919003321 66 68 2.0 3.0 0.00 0.00 0.00 53 1023.1
20190919002316 67 68 1.0 2.0 0.00 0.00 0.00 52 1022.7
20190919001321 67 68 2.0 4.0 0.00 0.00 0.00 51 1022.5
20190919000321 68 68 2.0 3.0 0.00 0.00 0.00 50 1022.3
20190918235321 68 68 2.0 4.0 0.00 0.00 0.00 49 1022.3
20190918234321 68 45 2.0 4.0 0.00 0.00 0.00 48 1022.3
20190918233321 69 68 2.0 3.0 0.00 0.00 0.00 48 1022.3
20190918232322 69 68 1.0 2.0 0.00 0.00 0.00 47 1022.1
20190918231316 70 45 1.0 3.0 0.00 0.00 0.00 46 1022.0
20190918230321 71 68 1.0 3.0 0.00 0.00 0.00 46 1021.9
20190918225321 71 45 1.0 2.0 0.00 0.00 0.00 46 1022.0
20190918224321 72 68 2.0 3.0 0.00 0.00 0.00 45 1022.0
20190918223322 73 45 1.0 2.0 0.00 0.00 0.00 44 1021.8
20190918222321 73 45 1.0 2.0 0.00 0.00 0.00 44 1021.8
20190918221321 74 23 2.0 3.0 0.00 0.00 0.00 42 1021.7
20190918220317 74 23 1.0 3.0 0.00 0.00 0.00 41 1021.8
20190918215321 75 45 1.0 3.0 0.00 0.00 0.00 41 1021.6
20190918214322 75 23 2.0 3.0 0.00 0.00 0.00 40 1021.7
20190918213321 75 68 2.0 4.0 0.00 0.00 0.00 39 1021.7
20190918212321 75 68 1.0 3.0 0.00 0.00 0.00 42 1021.6
20190918211322 75 68 2.0 4.0 0.00 0.00 0.00 40 1021.6
20190918210321 75 45 3.0 6.0 0.00 0.00 0.00 37 1021.7
20190918205316 75 68 3.0 5.0 0.00 0.00 0.00 39 1021.7
20190918204321 76 68 2.0 4.0 0.00 0.00 0.00 39 1021.7
20190918203321 76 293 1.0 2.0 0.00 0.00 0.00 42 1021.8
20190918202321 76 68 4.0 8.0 0.00 0.00 0.00 39 1021.8
20190918201322 76 23 1.0 3.0 0.00 0.00 0.00 38 1021.8
20190918200321 76 315 3.0 4.0 0.00 0.00 0.00 38 1022.0
20190918195323 76 45 1.0 2.0 0.00 0.00 0.00 41 1021.9
20190918194316 76 23 2.0 4.0 0.00 0.00 0.00 43 1022.0
20190918193321 76 68 1.0 3.0 0.00 0.00 0.00 46 1021.9
20190918192321 76 45 3.0 5.0 0.00 0.00 0.00 46 1021.9
20190918191321 76 0.0 2.0 0.00 0.00 0.00 46 1021.9
20190918190321 76 68 2.0 3.0 0.00 0.00 0.00 47 1022.0
20190918185321 76 45 3.0 6.0 0.00 0.00 0.00 51 1021.9
20190918184321 74 68 1.0 2.0 0.00 0.00 0.00 56 1022.0
20190918183316 73 135 1.0 2.0 0.00 0.00 0.00 54 1022.1
20190918182321 73 45 1.0 3.0 0.00 0.00 0.00 53 1022.1
20190918181321 74 0 2.0 3.0 0.00 0.00 0.00 52 1022.1
20190918180325 73 180 1.0 4.0 0.00 0.00 0.00 55 1022.2
20190918175321 72 23 3.0 4.0 0.00 0.00 0.00 53 1022.2
20190918174321 73 23 4.0 7.0 0.00 0.00 0.00 54 1022.3
20190918173321 73 158 1.0 2.0 0.00 0.00 0.00 53 1022.3
20190918172316 74 90 3.0 7.0 0.00 0.00 0.00 54 1022.3
20190918171321 73 23 1.0 1.0 0.00 0.00 0.00 54 1022.3
20190918170321 73 45 2.0 4.0 0.00 0.00 0.00 53 1022.5
20190918165321 73 68 2.0 4.0 0.00 0.00 0.00 55 1022.6
20190918164322 73 45 2.0 3.0 0.00 0.00 0.00 53 1022.7
20190918163321 73 45 1.0 2.0 0.00 0.00 0.00 53 1022.8
20190918162321 73 0.0 2.0 0.00 0.00 0.00 59 1022.8
20190918161316 72 135 1.0 2.0 0.00 0.00 0.00 60 1022.8
20190918160322 72 90 2.0 3.0 0.00 0.00 0.00 61 1022.9
20190918155322 71 23 1.0 2.0 0.00 0.00 0.00 63 1022.9
20190918154321 71 45 2.0 2.0 0.00 0.00 0.00 66 1022.9
20190918153321 70 23 1.0 2.0 0.00 0.00 0.00 67 1022.9
20190918152321 69 68 3.0 6.0 0.00 0.00 0.00 67 1022.9
20190918151321 68 180 1.0 2.0 0.00 0.00 0.00 70 1022.8
20190918150316 69 68 3.0 5.0 0.00 0.00 0.00 66 1022.9
20190918145321 68 68 1.0 1.0 0.00 0.00 0.00 70 1023.1
20190918144321 68 68 2.0 4.0 0.00 0.00 0.00 67 1023.0
20190918143358 0 0.0 0.0 0.00 0.00 0.00 66
20190918142718 67 68 1.0 3.0 0.00 0.00 0.00 70 1023.1
20190918141717 66 23 2.0 4.0 0.00 0.00 0.00 68 1023.1
20190918140721 65 90 4.0 6.0 0.00 0.00 0.00 65 1023.0
20190918135721 66 68 2.0 5.0 0.00 0.00 0.00 67 1023.0
20190918134721 65 68 2.0 4.0 0.00 0.00 0.00 67 1022.8
20190918133721 64 68 3.0 7.0 0.00 0.00 0.00 66 1022.8
20190918132721 64 68 3.0 5.0 0.00 0.00 0.00 67 1022.8
20190918131717 64 23 2.0 5.0 0.00 0.00 0.00 67 1022.6
20190918130716 64 68 2.0 4.0 0.00 0.00 0.00 67 1022.5
20190918125722 63 68 4.0 8.0 0.00 0.00 0.00 67 1022.5
20190918124722 63 23 3.0 5.0 0.00 0.00 0.00 67 1022.3
20190918123722 62 23 1.0 3.0 0.00 0.00 0.00 69 1022.3
20190918122721 62 45 2.0 5.0 0.00 0.00 0.00 70 1022.4
20190918121721 61 45 1.0 2.0 0.00 0.00 0.00 71 1022.3
20190918120716 60 0.0 1.0 0.00 0.00 0.00 72 1022.3
20190918115717 59 0.0 0.0 0.00 0.00 0.00 75 1022.4
20190918114721 58 0.0 1.0 0.00 0.00 0.00 76 1022.2
20190918113721 58 0.0 0.0 0.00 0.00 0.00 77 1022.0
20190918112721 58 0.0 1.0 0.00 0.00 0.00 76 1021.9
20190918111722 58 0 1.0 3.0 0.00 0.00 0.00 75 1021.8
20190918110722 58 0.0 0.0 0.00 0.00 0.00 75 1021.6
20190918105716 58 0.0 0.0 0.00 0.00 0.00 74 1021.6
20190918104716 59 338 1.0 2.0 0.00 0.00 0.00 73 1021.4
20190918103722 59 0 1.0 2.0 0.00 0.00 0.00 72 1021.3
20190918102721 59 45 1.0 1.0 0.00 0.00 0.00 71 1021.3
20190918101722 60 0.0 1.0 0.00 0.00 0.00 71 1021.2
20190918100721 60 68 1.0 2.0 0.00 0.00 0.00 69 1021.2
20190918095721 61 68 1.0 2.0 0.00 0.00 0.00 68 1021.1
20190918094716 61 68 1.0 2.0 0.00 0.00 0.00 68 1021.1
20190918093716 61 68 1.0 4.0 0.00 0.00 0.00 67 1020.9
20190918092722 61 0.0 1.0 0.00 0.00 0.00 67 1020.6
20190918091721 61 45 2.0 3.0 0.00 0.00 0.00 66 1020.4
20190918090721 62 0.0 0.0 0.00 0.00 0.00 65 1020.5
20190918085721 63 45 1.0 2.0 0.00 0.00 0.00 64 1020.5
20190918084721 63 23 2.0 4.0 0.00 0.00 0.00 63 1020.4
20190918083721 63 23 2.0 3.0 0.00 0.00 0.00 64 1020.6
20190918082717 64 68 3.0 5.0 0.00 0.00 0.00 63 1020.6
20190918081721 64 68 3.0 5.0 0.00 0.00 0.00 63 1020.6
20190918080722 64 0 4.0 7.0 0.00 0.00 0.00 63 1020.5
20190918075722 64 68 5.0 11.0 0.00 0.00 0.00 63 1020.4
20190918074724 64 68 4.0 7.0 0.00 0.00 0.00 64 1020.4
20190918073721 64 45 2.0 6.0 0.00 0.00 0.00 64 1020.4
20190918072721 64 68 3.0 6.0 0.00 0.00 0.00 64 1020.3
20190918071716 65 45 2.0 3.0 0.00 0.00 0.00 64 1020.4
20190918070721 65 68 2.0 4.0 0.00 0.00 0.00 63 1020.4
20190918065721 65 68 4.0 6.0 0.00 0.00 0.00 63 1020.4